Time;durP1;ratioP1;P1;durP2;ratioP2;P2;SDS_P1;SDS_P2;PMS_P1;PMS_P2;Temp;Humidity;BMP_temperature;BMP_pressure;BME280_temperature;BME280_humidity;BME280_pressure;Samples;Min_cycle;Max_cycle;Signal;HPM_P1;HPM_P2
2022/06/29 00:00:54;;;;;;;19.10;17.10;;;17.10;99.90;;;;;;5059401;28;20208;-74
2022/06/29 00:03:22;;;;;;;17.63;15.93;;;17.10;99.90;;;;;;5055646;28;20220;-75
2022/06/29 00:05:50;;;;;;;19.30;17.30;;;17.10;99.90;;;;;;5053468;28;20228;-76
2022/06/29 00:08:19;;;;;;;20.07;17.83;;;17.10;99.90;;;;;;5053359;28;20231;-75
2022/06/29 00:10:47;;;;;;;18.70;17.00;;;17.10;99.90;;;;;;5052994;28;20682;-75
2022/06/29 00:13:15;;;;;;;22.20;18.50;;;17.10;99.90;;;;;;5053339;28;20208;-77
2022/06/29 00:15:45;;;;;;;19.57;17.50;;;17.10;99.90;;;;;;5053422;28;20235;-75
2022/06/29 00:18:13;;;;;;;21.40;18.13;;;17.10;99.90;;;;;;5052611;28;20208;-76
2022/06/29 00:20:42;;;;;;;20.77;18.67;;;17.10;99.90;;;;;;5052785;28;20196;-77
2022/06/29 00:23:11;;;;;;;20.90;18.80;;;17.10;99.90;;;;;;5052844;28;20322;-80
2022/06/29 00:25:39;;;;;;;23.43;19.23;;;17.00;99.90;;;;;;5052406;28;20282;-78
2022/06/29 00:28:07;;;;;;;20.27;18.17;;;17.00;99.90;;;;;;5052885;28;20193;-79
2022/06/29 00:30:36;;;;;;;22.80;19.90;;;17.00;99.90;;;;;;5052450;28;20278;-79
2022/06/29 00:33:06;;;;;;;24.80;19.20;;;16.90;99.90;;;;;;5033501;28;20674;-73
2022/06/29 00:35:35;;;;;;;21.13;18.97;;;16.90;99.90;;;;;;5033186;28;20213;-78
2022/06/29 00:38:03;;;;;;;21.13;18.87;;;16.90;99.90;;;;;;5032929;28;20204;-78
2022/06/29 00:40:32;;;;;;;20.77;18.50;;;16.90;99.90;;;;;;5039113;28;20290;-74
2022/06/29 00:43:00;;;;;;;20.30;18.13;;;16.90;99.90;;;;;;5052485;28;20773;-74
2022/06/29 00:45:28;;;;;;;21.70;19.40;;;16.90;99.90;;;;;;5052714;28;20300;-77
2022/06/29 00:47:56;;;;;;;20.37;18.03;;;16.90;99.90;;;;;;5051613;28;20211;-74
2022/06/29 00:50:30;;;;;;;24.60;18.37;;;16.90;99.90;;;;;;5037185;28;20549;-73
2022/06/29 00:53:03;;;;;;;19.13;17.00;;;16.90;99.90;;;;;;5032646;28;20259;-75
2022/06/29 00:55:33;;;;;;;18.77;16.90;;;16.90;99.90;;;;;;5046235;28;20196;-73
2022/06/29 00:58:05;;;;;;;21.87;18.40;;;16.80;99.90;;;;;;5050332;28;20208;-73
2022/06/29 01:00:34;;;;;;;21.87;19.37;;;16.80;99.90;;;;;;5056054;28;20199;-74
2022/06/29 01:03:03;;;;;;;20.90;18.20;;;16.80;99.90;;;;;;5071402;28;20280;-74
2022/06/29 01:05:33;;;;;;;24.67;17.77;;;16.80;99.90;;;;;;5065837;28;20223;-72
2022/06/29 01:08:01;;;;;;;21.50;18.90;;;16.70;99.90;;;;;;5061407;28;20223;-75
2022/06/29 01:10:30;;;;;;;20.90;18.80;;;16.70;99.90;;;;;;5071892;28;20298;-76
2022/06/29 01:12:58;;;;;;;20.93;18.73;;;16.70;99.90;;;;;;5064843;28;20224;-78
2022/06/29 01:15:26;;;;;;;24.07;19.63;;;16.70;99.90;;;;;;5052140;28;20231;-75
2022/06/29 01:17:54;;;;;;;27.37;20.87;;;16.70;99.90;;;;;;5052190;28;20259;-77
2022/06/29 01:20:23;;;;;;;22.77;20.37;;;16.70;99.90;;;;;;5052174;28;20329;-74
2022/06/29 01:22:56;;;;;;;22.27;19.97;;;16.70;99.90;;;;;;5036736;28;20259;-77
2022/06/29 01:25:24;;;;;;;23.30;19.80;;;16.70;99.90;;;;;;5031948;28;20661;-73
2022/06/29 01:27:52;;;;;;;22.07;19.70;;;16.70;99.90;;;;;;5032099;28;20240;-78
2022/06/29 01:30:21;;;;;;;20.83;18.60;;;16.70;99.90;;;;;;5035475;28;20247;-76
2022/06/29 01:32:49;;;;;;;20.60;18.07;;;16.70;99.90;;;;;;5061456;28;20188;-77
2022/06/29 01:35:22;;;;;;;18.33;16.27;;;16.70;99.90;;;;;;5076062;28;20242;-78
2022/06/29 01:37:50;;;;;;;18.57;16.63;;;16.70;99.90;;;;;;5060828;28;20217;-75
2022/06/29 01:40:20;;;;;;;19.00;16.80;;;16.70;99.90;;;;;;5044829;28;20208;-77
2022/06/29 01:42:48;;;;;;;18.17;16.10;;;16.70;99.90;;;;;;5055274;28;20258;-78
2022/06/29 01:45:16;;;;;;;19.97;17.83;;;16.70;99.90;;;;;;5055241;28;20247;-73
2022/06/29 01:47:45;;;;;;;18.17;16.37;;;16.70;99.90;;;;;;5055507;28;20728;-79
2022/06/29 01:50:13;;;;;;;19.90;17.80;;;16.70;99.90;;;;;;5055603;28;20696;-75
2022/06/29 01:52:41;;;;;;;19.37;17.47;;;16.80;99.90;;;;;;5055437;28;20247;-73
2022/06/29 01:55:10;;;;;;;20.23;18.23;;;16.80;99.90;;;;;;5052766;28;20757;-76
2022/06/29 01:57:40;;;;;;;20.87;18.20;;;16.80;99.90;;;;;;5048045;28;20232;-73
2022/06/29 02:00:10;;;;;;;19.70;17.80;;;16.80;99.90;;;;;;5063740;28;20231;-76
2022/06/29 02:02:38;;;;;;;20.70;17.50;;;16.80;99.90;;;;;;5075070;28;20234;-74
2022/06/29 02:05:08;;;;;;;18.50;16.57;;;16.90;99.90;;;;;;5075559;28;20312;-73
2022/06/29 02:07:36;;;;;;;18.27;15.93;;;16.90;99.90;;;;;;5075007;28;20208;-73
2022/06/29 02:10:05;;;;;;;19.67;17.67;;;16.90;99.90;;;;;;5075302;28;20308;-74
2022/06/29 02:12:34;;;;;;;21.00;18.00;;;16.90;99.90;;;;;;5075603;28;20203;-74
2022/06/29 02:15:04;;;;;;;19.23;17.10;;;17.00;99.90;;;;;;5075360;28;20243;-78
2022/06/29 02:17:32;;;;;;;20.93;18.73;;;17.00;99.90;;;;;;5075062;28;20298;-76
2022/06/29 02:20:01;;;;;;;21.13;19.03;;;17.00;99.90;;;;;;5075045;28;20214;-78
2022/06/29 02:22:29;;;;;;;19.73;17.70;;;17.00;99.90;;;;;;5075178;28;20208;-73
2022/06/29 02:24:57;;;;;;;19.73;17.17;;;17.00;99.90;;;;;;5074755;28;20314;-76
2022/06/29 02:27:25;;;;;;;17.27;15.63;;;17.00;99.90;;;;;;5072240;28;20250;-75
2022/06/29 02:29:54;;;;;;;19.67;17.73;;;17.00;99.90;;;;;;5054549;28;20230;-80
2022/06/29 02:35:09;;;;;;;17.00;14.87;;;17.10;99.90;;;;;;5054383;28;20291;-75
2022/06/29 02:37:38;;;;;;;19.97;17.87;;;17.10;99.90;;;;;;5054417;28;20236;-73
2022/06/29 02:40:07;;;;;;;19.23;17.40;;;17.10;99.90;;;;;;5054468;28;20207;-77
2022/06/29 02:42:35;;;;;;;19.83;17.70;;;17.10;99.90;;;;;;5054040;28;20240;-75
2022/06/29 02:45:23;;;;;;;20.13;18.07;;;17.10;99.90;;;;;;5053346;28;20769;-74
2022/06/29 02:47:53;;;;;;;19.50;17.40;;;17.10;99.90;;;;;;5052045;28;20834;-73
2022/06/29 02:50:22;;;;;;;20.07;17.73;;;17.10;99.90;;;;;;5054266;28;20204;-73
2022/06/29 02:52:50;;;;;;;20.70;16.60;;;17.10;99.90;;;;;;5051844;28;20197;-73
2022/06/29 02:55:18;;;;;;;17.97;16.23;;;17.10;99.90;;;;;;5044351;28;20669;-76
2022/06/29 02:57:46;;;;;;;20.27;17.17;;;17.20;99.90;;;;;;5054369;28;20204;-74
2022/06/29 03:00:15;;;;;;;17.63;15.93;;;17.10;99.90;;;;;;5053771;28;20737;-73
2022/06/29 03:02:44;;;;;;;18.53;16.73;;;17.20;99.90;;;;;;5054339;28;20243;-74
2022/06/29 03:05:13;;;;;;;17.80;15.03;;;17.20;99.90;;;;;;5054158;28;20228;-75
2022/06/29 03:07:41;;;;;;;16.87;15.27;;;17.20;99.90;;;;;;5054134;28;20204;-75
2022/06/29 03:10:10;;;;;;;17.23;15.53;;;17.20;99.90;;;;;;5051154;28;20270;-73
2022/06/29 03:12:38;;;;;;;18.13;15.87;;;17.20;99.90;;;;;;5053960;28;20204;-75
2022/06/29 03:15:07;;;;;;;19.13;16.17;;;17.20;99.90;;;;;;5054348;28;20203;-74
2022/06/29 03:17:36;;;;;;;17.97;14.97;;;17.20;99.90;;;;;;5054175;28;20209;-75
2022/06/29 03:20:05;;;;;;;16.53;14.80;;;17.20;99.90;;;;;;5053047;28;20736;-74
2022/06/29 03:22:35;;;;;;;17.67;15.40;;;17.20;99.90;;;;;;5046369;28;20212;-74
2022/06/29 03:25:05;;;;;;;16.23;14.57;;;17.30;99.90;;;;;;5045080;28;20263;-74
2022/06/29 03:27:33;;;;;;;18.20;15.47;;;17.30;99.90;;;;;;5044916;28;20274;-74
2022/06/29 03:30:01;;;;;;;17.40;15.70;;;17.30;99.90;;;;;;5033632;28;20205;-74
2022/06/29 03:32:29;;;;;;;16.87;15.17;;;17.30;99.90;;;;;;5033670;28;20745;-76
2022/06/29 03:35:02;;;;;;;16.37;14.77;;;17.30;99.90;;;;;;5033901;28;20209;-74
2022/06/29 03:37:30;;;;;;;17.10;15.40;;;17.30;99.90;;;;;;5033696;28;20237;-75
2022/06/29 03:40:00;;;;;;;17.43;15.20;;;17.30;99.90;;;;;;5036447;28;20331;-74
2022/06/29 03:42:29;;;;;;;17.33;15.03;;;17.30;99.90;;;;;;5053329;28;20243;-76
2022/06/29 03:44:57;;;;;;;16.93;15.23;;;17.30;99.90;;;;;;5053231;28;20338;-74
2022/06/29 03:47:25;;;;;;;17.97;15.80;;;17.40;99.90;;;;;;5053846;28;20566;-73
2022/06/29 03:49:54;;;;;;;18.10;15.80;;;17.30;99.90;;;;;;5053351;28;20208;-75
2022/06/29 03:52:22;;;;;;;16.97;15.17;;;17.30;99.90;;;;;;5053369;28;20255;-74
2022/06/29 03:54:50;;;;;;;19.77;16.50;;;17.40;99.90;;;;;;5052790;28;20215;-74
2022/06/29 03:57:19;;;;;;;17.93;15.87;;;17.40;99.90;;;;;;5053594;28;20255;-75
2022/06/29 03:59:47;;;;;;;18.83;16.83;;;17.40;99.90;;;;;;5050309;28;20627;-74
2022/06/29 04:02:16;;;;;;;17.17;15.47;;;17.40;99.90;;;;;;5053073;28;20695;-73
2022/06/29 04:04:44;;;;;;;16.80;15.13;;;17.40;99.90;;;;;;5050806;28;20312;-77
2022/06/29 04:07:13;;;;;;;16.43;14.67;;;17.40;99.90;;;;;;5053030;28;20231;-74
2022/06/29 04:09:41;;;;;;;16.77;15.00;;;17.40;99.90;;;;;;5053296;28;20200;-73
2022/06/29 04:12:10;;;;;;;16.07;14.50;;;17.40;99.90;;;;;;5053158;28;20255;-74
2022/06/29 04:14:39;;;;;;;16.50;14.67;;;17.50;99.90;;;;;;5052702;28;20196;-75
2022/06/29 04:17:07;;;;;;;16.57;14.87;;;17.50;99.90;;;;;;5046773;28;20213;-74
2022/06/29 04:19:36;;;;;;;15.43;13.40;;;17.50;99.90;;;;;;5046024;28;20718;-74
2022/06/29 04:22:05;;;;;;;14.97;13.37;;;17.50;99.90;;;;;;5050305;28;20232;-74
2022/06/29 04:24:33;;;;;;;14.77;13.27;;;17.50;99.90;;;;;;5053018;28;20733;-77
2022/06/29 04:27:02;;;;;;;16.07;13.50;;;17.50;99.90;;;;;;5053135;28;20234;-74
2022/06/29 04:29:31;;;;;;;15.80;14.20;;;17.50;99.90;;;;;;5053556;28;20200;-76
2022/06/29 04:32:00;;;;;;;15.47;13.97;;;17.60;99.90;;;;;;5053391;28;20201;-77
2022/06/29 04:34:29;;;;;;;16.30;14.57;;;17.60;99.90;;;;;;5052348;28;20204;-75
2022/06/29 04:36:57;;;;;;;18.37;15.20;;;17.60;99.90;;;;;;5056121;28;20231;-74
2022/06/29 04:39:26;;;;;;;16.47;14.73;;;17.50;99.90;;;;;;5069129;28;20212;-75
2022/06/29 04:41:55;;;;;;;16.80;15.07;;;17.50;99.90;;;;;;5057080;28;20643;-74
2022/06/29 04:44:25;;;;;;;18.10;16.17;;;17.50;99.90;;;;;;5053573;28;20274;-74
2022/06/29 04:46:54;;;;;;;17.03;15.20;;;17.50;99.90;;;;;;5052787;28;20251;-78
2022/06/29 04:49:24;;;;;;;16.47;14.87;;;17.50;99.90;;;;;;5052164;28;20722;-74
2022/06/29 04:51:52;;;;;;;16.17;14.50;;;17.60;99.90;;;;;;5052867;28;20212;-74
2022/06/29 04:54:20;;;;;;;16.50;14.83;;;17.50;99.90;;;;;;5055303;28;20260;-76
2022/06/29 04:56:49;;;;;;;16.97;14.37;;;17.50;99.90;;;;;;5055596;28;20200;-77
2022/06/29 04:59:18;;;;;;;19.83;15.50;;;17.50;99.90;;;;;;5060095;28;20211;-77
2022/06/29 05:01:48;;;;;;;16.53;14.93;;;17.50;99.90;;;;;;5062081;28;20226;-75
2022/06/29 05:04:17;;;;;;;16.40;14.63;;;17.60;99.90;;;;;;5049235;28;20208;-75
2022/06/29 05:06:50;;;;;;;17.30;14.60;;;17.60;99.90;;;;;;5059999;28;20208;-74
2022/06/29 05:09:19;;;;;;;18.27;15.27;;;17.70;99.90;;;;;;5057863;28;20270;-76
2022/06/29 05:11:47;;;;;;;16.23;14.63;;;17.70;99.90;;;;;;5056586;28;20666;-75
2022/06/29 05:14:16;;;;;;;17.60;15.20;;;17.80;99.90;;;;;;5056431;28;20212;-75
2022/06/29 05:16:44;;;;;;;16.33;13.80;;;17.80;99.90;;;;;;5049912;28;20205;-76
2022/06/29 05:19:13;;;;;;;16.30;14.60;;;17.90;99.90;;;;;;5042154;28;20769;-77
2022/06/29 05:21:41;;;;;;;15.33;13.83;;;18.00;99.90;;;;;;5052625;28;20290;-76
2022/06/29 05:24:10;;;;;;;14.73;13.17;;;18.10;99.90;;;;;;5053813;28;20262;-77
2022/06/29 05:26:39;;;;;;;14.33;12.87;;;18.20;99.90;;;;;;5063314;28;20263;-77
2022/06/29 05:29:08;;;;;;;13.77;12.10;;;18.20;99.90;;;;;;5058963;28;20258;-76
2022/06/29 05:31:36;;;;;;;14.80;12.47;;;18.30;99.90;;;;;;5056308;28;20258;-76
2022/06/29 05:34:05;;;;;;;14.40;12.87;;;18.20;99.90;;;;;;5059120;28;20219;-76
2022/06/29 05:36:33;;;;;;;13.93;11.97;;;18.30;99.90;;;;;;5047769;28;20209;-76
2022/06/29 05:39:01;;;;;;;14.13;10.83;;;18.30;99.90;;;;;;5032963;28;20353;-78
2022/06/29 05:41:31;;;;;;;13.93;12.30;;;18.30;99.90;;;;;;5032562;28;20671;-77
2022/06/29 05:43:59;;;;;;;13.57;11.57;;;18.30;99.90;;;;;;5051947;28;20212;-76
2022/06/29 05:46:28;;;;;;;13.30;11.87;;;18.30;99.90;;;;;;5052106;28;20689;-75
2022/06/29 05:48:56;;;;;;;12.93;11.57;;;18.40;99.90;;;;;;5052275;28;20319;-76
2022/06/29 05:51:24;;;;;;;14.47;11.27;;;18.50;99.90;;;;;;5052532;28;20204;-78
2022/06/29 05:53:53;;;;;;;12.23;10.83;;;18.60;99.90;;;;;;5052323;28;20294;-78
2022/06/29 05:56:22;;;;;;;12.87;11.47;;;18.60;99.90;;;;;;5052334;28;20205;-75
2022/06/29 05:58:52;;;;;;;12.57;10.97;;;18.70;99.90;;;;;;5051931;28;20580;-76
2022/06/29 06:01:20;;;;;;;12.60;11.30;;;18.70;99.90;;;;;;5052689;28;20239;-76
2022/06/29 06:03:48;;;;;;;13.00;11.23;;;18.80;99.90;;;;;;5052950;28;20677;-76
2022/06/29 06:06:17;;;;;;;12.53;11.30;;;18.80;99.90;;;;;;5053352;28;20228;-76
2022/06/29 06:08:45;;;;;;;15.17;11.20;;;18.90;99.90;;;;;;5052471;28;20608;-76
2022/06/29 06:11:13;;;;;;;13.57;11.20;;;19.00;99.90;;;;;;5051876;28;20259;-76
2022/06/29 06:13:41;;;;;;;10.93;9.43;;;19.10;99.90;;;;;;5051668;28;20648;-75
2022/06/29 06:16:11;;;;;;;15.30;9.83;;;19.10;99.90;;;;;;5050811;28;20236;-75
2022/06/29 06:18:59;;;;;;;10.87;9.73;;;19.20;99.90;;;;;;5054589;28;20213;-75
2022/06/29 06:21:27;;;;;;;11.47;8.70;;;19.20;99.90;;;;;;5055243;28;20678;-75
2022/06/29 06:23:55;;;;;;;12.47;9.10;;;19.10;99.90;;;;;;5055767;28;20244;-75
2022/06/29 06:26:24;;;;;;;9.67;8.67;;;19.10;99.90;;;;;;5055223;28;20312;-75
2022/06/29 06:28:53;;;;;;;11.37;9.13;;;19.10;99.90;;;;;;5054842;28;20208;-75
2022/06/29 06:31:25;;;;;;;11.13;9.87;;;19.20;99.90;;;;;;5055345;28;20231;-75
2022/06/29 06:33:54;;;;;;;11.00;9.80;;;19.20;99.90;;;;;;5055117;28;20609;-76
2022/06/29 06:36:22;;;;;;;11.20;9.70;;;19.10;99.90;;;;;;5055200;28;20243;-76
2022/06/29 06:38:50;;;;;;;10.63;8.40;;;19.10;99.90;;;;;;5055023;28;20208;-76
2022/06/29 06:41:25;;;;;;;12.07;8.50;;;19.20;99.90;;;;;;5055030;28;20636;-75
2022/06/29 06:43:55;;;;;;;10.20;8.10;;;19.10;99.90;;;;;;5055176;28;20207;-75
2022/06/29 06:46:25;;;;;;;10.33;8.43;;;19.10;99.90;;;;;;5055070;28;20640;-76
2022/06/29 06:48:54;;;;;;;9.03;8.03;;;19.00;99.90;;;;;;5054956;28;20232;-75
2022/06/29 06:51:24;;;;;;;9.47;8.13;;;19.00;99.90;;;;;;5054893;28;20637;-77
2022/06/29 06:53:52;;;;;;;10.73;8.60;;;18.90;99.90;;;;;;5054986;28;20263;-75
2022/06/29 06:56:21;;;;;;;9.20;8.30;;;18.80;99.90;;;;;;5055078;28;20254;-76
2022/06/29 06:58:49;;;;;;;11.00;8.83;;;18.80;99.90;;;;;;5054670;28;20281;-76
2022/06/29 07:01:22;;;;;;;11.00;9.23;;;18.70;99.90;;;;;;5054784;28;20209;-76
2022/06/29 07:03:52;;;;;;;10.20;9.07;;;18.70;99.90;;;;;;5054855;28;20208;-75
2022/06/29 07:06:20;;;;;;;11.67;8.83;;;18.70;99.90;;;;;;5054396;28;20233;-75
2022/06/29 07:08:49;;;;;;;10.23;8.70;;;18.60;99.90;;;;;;5054940;28;20315;-76
2022/06/29 07:11:18;;;;;;;10.53;9.00;;;18.60;99.90;;;;;;5054955;28;20216;-76
2022/06/29 07:13:46;;;;;;;11.53;8.50;;;18.60;99.90;;;;;;5054656;28;20243;-77
2022/06/29 07:16:15;;;;;;;10.47;8.10;;;18.60;99.90;;;;;;5054798;28;20208;-77
2022/06/29 07:18:44;;;;;;;9.67;8.03;;;18.60;99.90;;;;;;5054163;28;20669;-75
2022/06/29 07:21:13;;;;;;;9.07;7.87;;;18.60;99.90;;;;;;5054148;28;20681;-75
2022/06/29 07:23:41;;;;;;;9.17;7.43;;;18.60;99.90;;;;;;5053921;28;20215;-76
2022/06/29 07:26:10;;;;;;;9.87;7.93;;;18.60;99.90;;;;;;5053789;28;20271;-74
2022/06/29 07:28:40;;;;;;;11.53;8.33;;;18.70;99.90;;;;;;5052953;28;20638;-75
2022/06/29 07:31:08;;;;;;;10.37;7.43;;;18.70;99.90;;;;;;5054120;28;20670;-74
2022/06/29 07:33:36;;;;;;;9.07;7.27;;;18.80;99.90;;;;;;5048117;28;20336;-75
2022/06/29 07:36:08;;;;;;;9.70;7.17;;;18.90;99.90;;;;;;5034040;28;20741;-74
2022/06/29 07:38:38;;;;;;;10.40;7.20;;;18.90;99.90;;;;;;5034497;28;20209;-74
2022/06/29 07:41:07;;;;;;;10.47;7.53;;;18.90;99.90;;;;;;5034001;28;20632;-75
2022/06/29 07:43:35;;;;;;;12.13;7.53;;;18.90;99.90;;;;;;5034668;28;20260;-74
2022/06/29 07:46:03;;;;;;;9.73;7.40;;;18.90;99.90;;;;;;5034010;28;20260;-74
2022/06/29 07:48:31;;;;;;;9.30;7.03;;;18.80;99.90;;;;;;5033825;28;20232;-75
2022/06/29 07:50:59;;;;;;;11.53;6.90;;;18.90;99.90;;;;;;5033273;28;20694;-75
2022/06/29 07:53:31;;;;;;;10.53;7.13;;;18.90;99.90;;;;;;5033760;28;20208;-76
2022/06/29 07:56:00;;;;;;;9.57;6.90;;;19.00;99.90;;;;;;5033770;28;20213;-75
2022/06/29 07:58:28;;;;;;;10.00;6.93;;;19.00;99.90;;;;;;5033483;28;20278;-75
2022/06/29 08:00:57;;;;;;;7.43;6.33;;;19.20;99.90;;;;;;5033457;28;20213;-75
2022/06/29 08:03:25;;;;;;;8.73;6.47;;;19.30;99.90;;;;;;5033453;28;20209;-74
2022/06/29 08:05:54;;;;;;;14.20;5.93;;;19.50;99.90;;;;;;5033821;28;20239;-74
2022/06/29 08:08:22;;;;;;;9.50;6.67;;;19.80;99.90;;;;;;5033390;28;20682;-76
2022/06/29 08:10:51;;;;;;;7.90;6.07;;;20.00;99.90;;;;;;5033329;28;20294;-76
2022/06/29 08:13:20;;;;;;;9.20;6.13;;;20.30;99.90;;;;;;5033307;28;20220;-74
2022/06/29 08:15:48;;;;;;;7.73;5.87;;;20.50;99.90;;;;;;5033766;28;20209;-77
2022/06/29 08:18:18;;;;;;;8.77;6.00;;;20.80;99.90;;;;;;5033156;28;20258;-76
2022/06/29 08:20:46;;;;;;;6.83;5.53;;;21.10;99.90;;;;;;5033804;28;20232;-75
2022/06/29 08:23:14;;;;;;;7.27;5.17;;;21.60;99.90;;;;;;5033379;28;20209;-75
2022/06/29 08:25:43;;;;;;;6.70;5.00;;;21.50;99.90;;;;;;5033182;28;20208;-74
2022/06/29 08:28:32;;;;;;;7.90;5.23;;;21.70;99.90;;;;;;5032793;28;20729;-74
2022/06/29 08:31:01;;;;;;;9.30;5.40;;;21.60;99.90;;;;;;5032494;28;20204;-76
2022/06/29 08:33:29;;;;;;;5.57;4.90;;;21.40;99.90;;;;;;5036401;28;20212;-75
2022/06/29 08:35:58;;;;;;;7.77;5.20;;;21.40;99.90;;;;;;5032803;28;20212;-74
2022/06/29 08:38:26;;;;;;;6.33;5.30;;;21.50;99.90;;;;;;5033344;28;20205;-74
2022/06/29 08:40:55;;;;;;;6.77;5.03;;;21.40;99.90;;;;;;5032291;28;20209;-76
2022/06/29 08:43:24;;;;;;;6.33;5.73;;;21.40;99.90;;;;;;5034649;28;20204;-75
2022/06/29 08:45:54;;;;;;;7.23;5.80;;;21.40;99.90;;;;;;5037269;28;20208;-77
2022/06/29 08:48:23;;;;;;;7.60;5.67;;;21.40;99.90;;;;;;5037428;28;20303;-76
2022/06/29 08:50:53;;;;;;;7.97;5.30;;;21.40;99.90;;;;;;5049400;28;20200;-75
2022/06/29 08:53:23;;;;;;;7.80;6.10;;;21.30;99.90;;;;;;5055977;28;20192;-75
2022/06/29 08:55:55;;;;;;;7.27;6.00;;;21.40;99.90;;;;;;5054680;28;20764;-74
2022/06/29 08:58:26;;;;;;;9.03;5.53;;;21.40;99.90;;;;;;5054792;28;20634;-74
2022/06/29 09:00:56;;;;;;;7.80;5.50;;;21.60;99.90;;;;;;5052553;28;20207;-75
2022/06/29 09:03:24;;;;;;;6.80;5.23;;;21.70;99.90;;;;;;5052522;28;20204;-75
2022/06/29 09:05:56;;;;;;;6.67;5.13;;;21.90;99.90;;;;;;5052130;28;20251;-74
2022/06/29 09:08:25;;;;;;;7.73;5.57;;;22.00;99.90;;;;;;5052188;28;20652;-75
2022/06/29 09:10:53;;;;;;;6.03;4.97;;;22.00;99.90;;;;;;5051848;28;20242;-75
2022/06/29 09:13:24;;;;;;;7.53;5.57;;;22.10;99.90;;;;;;5051882;28;20204;-74
2022/06/29 09:16:00;;;;;;;6.73;5.00;;;22.20;99.90;;;;;;5052137;28;20196;-75
2022/06/29 09:18:31;;;;;;;6.10;5.10;;;22.30;99.90;;;;;;5052150;28;20204;-77
2022/06/29 09:21:01;;;;;;;7.10;5.00;;;22.30;99.90;;;;;;5051968;28;20258;-76
2022/06/29 09:23:30;;;;;;;7.23;5.00;;;22.60;99.90;;;;;;5052069;28;20250;-75
2022/06/29 09:25:59;;;;;;;6.10;5.10;;;22.80;99.90;;;;;;5054491;28;20296;-74
2022/06/29 09:28:29;;;;;;;4.70;4.10;;;23.60;99.90;;;;;;5051633;28;20212;-75
2022/06/29 09:31:00;;;;;;;7.37;5.00;;;24.80;99.90;;;;;;5051694;28;20236;-76
2022/06/29 09:33:30;;;;;;;4.70;4.13;;;25.60;99.90;;;;;;5052096;28;20326;-77
2022/06/29 09:36:06;;;;;;;6.60;4.30;;;26.20;99.90;;;;;;5052139;28;20214;-78
2022/06/29 09:38:36;;;;;;;5.60;3.65;;;27.20;99.90;;;;;;5052058;28;20261;-75
2022/06/29 09:41:06;;;;;;;6.15;3.30;;;27.20;99.90;;;;;;5051412;28;20255;-78
2022/06/29 09:43:37;;;;;;;3.97;3.38;;;27.70;99.90;;;;;;5052199;28;20239;-79
2022/06/29 09:46:07;;;;;;;6.10;3.25;;;28.30;99.90;;;;;;5053059;28;20208;-77
2022/06/29 09:48:37;;;;;;;4.55;3.40;;;27.50;99.90;;;;;;5051759;28;20603;-77
2022/06/29 09:53:53;;;;;;;5.72;3.40;;;26.60;99.90;;;;;;5054120;28;20265;-75
2022/06/29 09:56:22;;;;;;;5.85;3.58;;;26.50;99.90;;;;;;5055565;28;20689;-76
2022/06/29 09:58:53;;;;;;;6.37;3.60;;;26.30;99.90;;;;;;5055723;28;20212;-75
2022/06/29 10:04:15;;;;;;;4.87;3.20;;;26.30;99.90;;;;;;5055929;28;20220;-76
2022/06/29 10:06:45;;;;;;;6.03;3.33;;;26.90;99.90;;;;;;5055838;28;20275;-77
2022/06/29 10:09:14;;;;;;;8.00;3.20;;;27.10;99.90;;;;;;5055085;28;20701;-76
2022/06/29 10:14:57;;;;;;;3.93;3.13;;;27.20;99.90;;;;;;5055442;28;20231;-77
2022/06/29 10:17:37;;;;;;;3.45;3.15;;;26.80;99.90;;;;;;5055381;28;20711;-76
2022/06/29 10:20:29;;;;;;;4.68;4.10;;;26.70;99.90;;;;;;5055233;28;20246;-75
2022/06/29 10:22:57;;;;;;;6.47;3.33;;;26.90;99.90;;;;;;5056776;28;20212;-76
2022/06/29 10:25:28;;;;;;;5.63;3.40;;;27.00;99.90;;;;;;5057159;28;20232;-75
2022/06/29 10:28:16;;;;;;;5.78;3.28;;;27.00;99.90;;;;;;5055540;28;20212;-76
2022/06/29 10:30:45;;;;;;;4.13;3.35;;;27.80;99.90;;;;;;5055487;28;20239;-76
2022/06/29 10:33:35;;;;;;;4.57;3.30;;;28.60;99.90;;;;;;5057531;28;20239;-77
2022/06/29 10:36:05;;;;;;;6.65;4.10;;;28.70;99.90;;;;;;5057791;28;20196;-77
2022/06/29 10:39:12;;;;;;;4.40;4.00;;;29.70;99.90;;;;;;5055383;28;20204;-75
2022/06/29 10:45:08;;;;;;;5.43;3.47;;;29.60;99.90;;;;;;5056463;28;20212;-75
2022/06/29 10:47:36;;;;;;;3.97;3.58;;;29.50;99.90;;;;;;4992965;28;20220;-77
2022/06/29 10:50:26;;;;;;;5.40;3.97;;;29.50;99.90;;;;;;5041495;28;20262;-77
2022/06/29 10:52:56;;;;;;;6.55;3.40;;;28.90;99.90;;;;;;5055065;28;20192;-76
2022/06/29 10:55:27;;;;;;;6.70;3.33;;;28.50;99.90;;;;;;5054723;28;20236;-77
2022/06/29 10:57:56;;;;;;;6.20;3.80;;;28.00;99.90;;;;;;5054755;28;20271;-76
2022/06/29 11:00:27;;;;;;;7.53;3.85;;;27.70;99.90;;;;;;5054095;28;20295;-75
2022/06/29 11:02:55;;;;;;;6.90;4.22;;;27.20;99.90;;;;;;5054650;28;20188;-76
2022/06/29 11:05:25;;;;;;;5.13;3.70;;;26.40;99.90;;;;;;5055225;28;20219;-76
2022/06/29 11:13:27;;;;;;;5.73;3.70;;;26.00;99.90;;;;;;5054371;28;20604;-77
2022/06/29 11:15:58;;;;;;;5.13;3.87;;;25.70;99.90;;;;;;5054268;28;20208;-76
2022/06/29 11:18:28;;;;;;;6.43;3.77;;;25.60;99.90;;;;;;5054078;28;20690;-76
2022/06/29 11:21:02;;;;;;;4.23;3.77;;;25.70;99.90;;;;;;5054233;28;20235;-76
2022/06/29 11:23:32;;;;;;;4.97;3.50;;;25.50;99.90;;;;;;5054336;28;20759;-75
2022/06/29 11:26:04;;;;;;;6.47;4.20;;;25.60;99.90;;;;;;5055619;28;20204;-75
2022/06/29 11:28:36;;;;;;;6.30;4.00;;;25.60;99.90;;;;;;5043972;28;20336;-75
2022/06/29 11:31:10;;;;;;;5.80;3.60;;;25.60;99.90;;;;;;5034808;28;20619;-75
2022/06/29 11:33:44;;;;;;;6.77;3.60;;;25.50;99.90;;;;;;5035268;28;20193;-74
2022/06/29 11:36:19;;;;;;;5.03;3.83;;;25.80;99.90;;;;;;5033924;28;20233;-76
2022/06/29 11:38:49;;;;;;;6.47;4.37;;;26.10;99.90;;;;;;5034017;28;20228;-77
2022/06/29 11:41:19;;;;;;;6.90;3.80;;;25.80;99.90;;;;;;5036200;28;20674;-74
2022/06/29 11:44:02;;;;;;;7.30;3.30;;;25.90;99.90;;;;;;5034378;28;20193;-75
2022/06/29 11:46:33;;;;;;;5.27;3.50;;;26.20;99.90;;;;;;5034697;28;20196;-75
2022/06/29 11:51:54;;;;;;;5.47;4.50;;;26.20;99.90;;;;;;5034166;28;20292;-74
2022/06/29 11:54:39;;;;;;;7.43;4.17;;;25.90;99.90;;;;;;5033968;28;20258;-76
2022/06/29 11:57:09;;;;;;;6.37;3.97;;;25.60;99.90;;;;;;5034291;28;20243;-75
2022/06/29 11:59:39;;;;;;;8.10;4.03;;;25.80;99.90;;;;;;5035086;28;20675;-75
2022/06/29 12:02:08;;;;;;;8.00;4.13;;;25.80;99.90;;;;;;5033969;28;20205;-76
2022/06/29 12:04:38;;;;;;;5.50;3.70;;;25.70;99.90;;;;;;5033299;28;20213;-75
2022/06/29 12:07:09;;;;;;;6.30;3.80;;;25.80;99.90;;;;;;5033393;28;20221;-77
2022/06/29 12:09:39;;;;;;;7.90;4.50;;;25.90;99.90;;;;;;5035256;28;20759;-75
2022/06/29 12:12:09;;;;;;;6.27;4.57;;;25.80;99.90;;;;;;5033419;28;20216;-74
2022/06/29 12:14:39;;;;;;;5.80;3.93;;;25.50;99.90;;;;;;5033436;28;20204;-75
2022/06/29 12:17:09;;;;;;;4.67;3.60;;;25.60;99.90;;;;;;5033115;28;20200;-75
2022/06/29 12:19:39;;;;;;;6.50;4.30;;;25.30;99.90;;;;;;5033004;28;20284;-74
2022/06/29 12:22:09;;;;;;;5.87;4.30;;;25.40;99.90;;;;;;5033394;28;20244;-74
2022/06/29 12:24:38;;;;;;;7.63;4.40;;;25.20;99.90;;;;;;5033290;28;20729;-75
2022/06/29 12:27:06;;;;;;;5.43;4.10;;;25.10;99.90;;;;;;5043185;28;20205;-74
2022/06/29 12:29:34;;;;;;;6.20;4.13;;;25.20;99.90;;;;;;5052537;28;20775;-75
2022/06/29 12:32:03;;;;;;;5.87;4.20;;;25.30;99.90;;;;;;5052555;28;20259;-74
2022/06/29 12:34:31;;;;;;;7.13;4.63;;;25.00;99.90;;;;;;5052629;28;20303;-75
2022/06/29 12:37:03;;;;;;;5.47;3.87;;;24.90;99.90;;;;;;5052788;28;20335;-75
2022/06/29 12:39:33;;;;;;;6.00;4.30;;;24.90;99.90;;;;;;5053348;28;20188;-77
2022/06/29 12:42:02;;;;;;;6.40;4.07;;;24.60;99.90;;;;;;5052976;28;20678;-75
2022/06/29 12:44:31;;;;;;;7.23;4.50;;;24.60;99.90;;;;;;5053783;28;20212;-75
2022/06/29 12:47:00;;;;;;;6.57;4.03;;;24.70;99.90;;;;;;5052676;28;20266;-75
2022/06/29 12:49:28;;;;;;;5.07;4.07;;;25.00;99.90;;;;;;5053759;28;20725;-78
2022/06/29 12:51:56;;;;;;;5.50;3.87;;;25.10;99.90;;;;;;5052908;28;20551;-76
2022/06/29 12:54:24;;;;;;;7.43;3.80;;;25.20;99.90;;;;;;5052577;28;20289;-75
2022/06/29 12:56:54;;;;;;;8.43;4.33;;;25.40;99.90;;;;;;5056750;28;20224;-75
2022/06/29 12:59:22;;;;;;;7.40;4.23;;;25.10;99.90;;;;;;5053468;28;20204;-78
2022/06/29 13:01:51;;;;;;;7.63;4.13;;;25.10;99.90;;;;;;5054640;28;20272;-73
2022/06/29 13:04:20;;;;;;;6.57;3.93;;;25.30;99.90;;;;;;5054970;28;20204;-77
2022/06/29 13:06:50;;;;;;;7.27;4.33;;;25.50;99.90;;;;;;5057228;28;20266;-77
2022/06/29 13:09:18;;;;;;;7.50;5.57;;;25.50;99.90;;;;;;5055041;28;20286;-76
2022/06/29 13:11:51;;;;;;;8.27;5.50;;;25.00;99.90;;;;;;5054322;28;20228;-76